Casper, WY (82601)

3:53 AM MDT on April 27, 2017 (GMT -0600)
Grant Avenue | | Change Station
Active Advisory: Winter Storm Warning

Elev 5164 ft 42.84 °N, 106.32 °W | Updated 2 minutes ago

Mostly Cloudy
Mostly Cloudy
39.4 °F
Feels Like 39 °F
N
0.6
Wind Variable Wind from NW
Gusts 1.2 mph

Today
High -- | Low -- °F
--% Chance of Precip.
Yesterday
High -- | Low -- °F
Precip. -- in
Pressure 29.52 in
Visibility 10.0 miles
Clouds Overcast 8500 ft
Windchill 39 °F
Dew Point 35 °F
Humidity 83%
Rainfall 0.00 in
Snow Depth Not available.
6:04 AM 8:01 PM
New Moon, 1% visible
METAR KCPR 270853Z AUTO 06004KT 10SM OVC085 02/01 A2955 RMK AO2 SLP995 T00170011 58014
Pressure 29.52 in
Visibility 10.0 miles
Clouds Overcast 8500 ft
Windchill 39 °F
Dew Point 35 °F
Humidity 83%
Rainfall 0.00 in
Snow Depth Not available.
6:04 AM 8:01 PM
New Moon, 1% visible
METAR KCPR 270853Z AUTO 06004KT 10SM OVC085 02/01 A2955 RMK AO2 SLP995 T00170011 58014

Get Your Daily Forecast Email!

Thanks for signing up!

Be on the lookout for a verification email in your inbox.

You'll start receiving severe weather alerts in your inbox..

×

10-Day Weather Forecast

Almanac

Astronomy

Apr. 27, 2017 Rise Set
Actual Time
Civil Twilight
Nautical Twilight
Astronomical Twilight
Moon
Length of Visible Light
Length of Day
Tomorrow will be .
, % of the Moon is Illuminated

Today's Extremes

State Highs State Lows

Community

WunderPhotos

WunderBlog® & News

Nearby

Air Quality

  Air Quality AQ Index Pollutant
Not available.

Snow Depth

Station Depth Elevation

Earthquake Activity

City Distance Mag. Time & Date
Minimum magnitude displayed is 2.5.

Coastal Water Temperatures

Place Temperature

Stations

Nearby Weather Stations

Station Location Temp. Windchill Dew Point Humidity Wind Precip. Elev Updated Type
                   

Watches & Warnings

Winter Storm Warning
Issued: 1:32 AM MDT Apr. 27, 2017 – National Weather Service

... Winter Storm Warning in effect from 6 PM this evening to
midnight MDT Friday night...

The National Weather Service in Riverton has issued a Winter
Storm Warning for snow, which is in effect from 6 PM this evening
to midnight MDT Friday night. The Winter Storm Watch is no longer
in effect.

* Timing... a mix of rain and snow will change to snow by this
evening. Periods of snow will continue into Friday evening.

* Snow accumulation... 5 to 9 inches, with the highest amounts in
northern Natrona County and lesser amounts toward Casper.

* Main impact... slushy to snow packed roads will make travel
difficult.

* Other impacts... heavy snow will reduce visibility below a
quarter mile at times.

Precautionary/preparedness actions...

A Winter Storm Warning means significant amounts of snow, and or
blowing snow are expected or occurring. This could make travel
very hazardous or impossible. If you must travel keep some food,
water, and an extra flashlight in your vehicle in case of an
emergency. Check the latest Road conditions at wyoroad.Info or by
dialing 5 1 1.